createdAt,value
2019-03-22T00:00:01.159Z,96.77
2019-03-22T00:02:33.314Z,97.12
2019-03-22T00:05:04.792Z,98.34
2019-03-22T00:07:35.345Z,98.58
2019-03-22T00:10:06.632Z,99.17
2019-03-22T00:12:37.254Z,99.35
2019-03-22T00:15:08.216Z,99.43
2019-03-22T00:17:38.891Z,100.00
2019-03-22T00:20:09.622Z,100.00
2019-03-22T00:22:40.131Z,100.00
2019-03-22T00:25:10.736Z,100.00
2019-03-22T00:27:41.298Z,100.00
2019-03-22T00:30:12.205Z,100.00
2019-03-22T00:32:42.755Z,100.00
2019-03-22T00:35:13.344Z,100.00
2019-03-22T00:37:43.918Z,100.00
2019-03-22T00:40:16.058Z,100.00
2019-03-22T00:42:46.633Z,100.00
2019-03-22T00:45:17.300Z,100.00
2019-03-22T00:47:47.782Z,100.00
2019-03-22T00:50:18.426Z,100.00
2019-03-22T00:52:48.983Z,100.00
2019-03-22T00:55:19.605Z,100.00
2019-03-22T00:57:50.088Z,100.00
2019-03-22T01:00:20.594Z,100.00
2019-03-22T01:02:51.240Z,100.00
2019-03-22T01:05:21.850Z,100.00
2019-03-22T01:07:52.464Z,100.00
2019-03-22T01:10:22.982Z,100.00
2019-03-22T01:12:53.501Z,100.00
2019-03-22T01:15:24.076Z,100.00
2019-03-22T01:17:54.653Z,100.00
2019-03-22T01:20:25.195Z,100.00
2019-03-22T01:22:55.763Z,100.00
2019-03-22T01:25:26.347Z,100.00
2019-03-22T01:27:56.999Z,100.00
2019-03-22T01:30:27.641Z,100.00
2019-03-22T01:32:58.145Z,100.00
2019-03-22T01:35:28.612Z,100.00
2019-03-22T01:37:59.307Z,100.00
2019-03-22T01:40:29.828Z,100.00
2019-03-22T01:43:00.310Z,100.00
2019-03-22T01:45:30.871Z,100.00
2019-03-22T01:48:01.359Z,100.00
2019-03-22T01:50:31.993Z,100.00
2019-03-22T01:53:02.801Z,100.00
2019-03-22T01:55:33.372Z,100.00
2019-03-22T01:58:03.971Z,100.00
2019-03-22T02:00:34.419Z,100.00
2019-03-22T02:03:05.205Z,100.00
2019-03-22T02:05:35.722Z,100.00
2019-03-22T02:08:06.338Z,100.00
2019-03-22T02:10:36.923Z,100.00
2019-03-22T02:13:08.824Z,100.00
2019-03-22T02:15:39.676Z,100.00
2019-03-22T02:18:10.316Z,100.00
2019-03-22T02:20:40.910Z,100.00
2019-03-22T02:23:11.540Z,100.00
2019-03-22T02:25:42.060Z,100.00
2019-03-22T02:28:12.635Z,100.00
2019-03-22T02:30:43.211Z,100.00
2019-03-22T02:33:13.710Z,100.00
2019-03-22T02:35:44.175Z,100.00
2019-03-22T02:38:14.660Z,100.00
2019-03-22T02:40:45.582Z,100.00
2019-03-22T02:43:16.085Z,100.00
2019-03-22T02:45:46.699Z,100.00
2019-03-22T02:48:17.429Z,100.00
2019-03-22T02:50:48.010Z,100.00
2019-03-22T02:53:18.639Z,100.00
2019-03-22T02:55:49.196Z,100.00
2019-03-22T02:58:21.368Z,100.00
2019-03-22T03:00:51.989Z,100.00
2019-03-22T03:03:22.495Z,100.00
2019-03-22T03:05:53.000Z,100.00
2019-03-22T03:08:23.660Z,100.00
2019-03-22T03:10:54.178Z,100.00
2019-03-22T03:13:24.735Z,100.00
2019-03-22T03:15:55.540Z,100.00
2019-03-22T03:18:27.083Z,100.00
2019-03-22T03:20:57.625Z,100.00
2019-03-22T03:23:28.303Z,100.00
2019-03-22T03:25:58.828Z,100.00
2019-03-22T03:28:36.796Z,100.00
2019-03-22T03:31:01.692Z,100.00
2019-03-22T03:33:32.254Z,100.00
2019-03-22T03:36:02.749Z,100.00
2019-03-22T03:38:33.447Z,100.00
2019-03-22T03:41:04.000Z,100.00
2019-03-22T03:43:34.476Z,100.00
2019-03-22T03:46:05.001Z,100.00
2019-03-22T03:48:35.486Z,100.00
2019-03-22T03:51:06.085Z,100.00
2019-03-22T03:53:36.660Z,100.00
2019-03-22T03:56:07.171Z,100.00
2019-03-22T03:58:51.750Z,100.00
2019-03-22T04:01:09.989Z,100.00
2019-03-22T04:03:40.638Z,100.00
2019-03-22T04:06:11.220Z,100.00
2019-03-22T04:08:41.771Z,100.00
2019-03-22T04:11:12.309Z,100.00
2019-03-22T04:13:43.472Z,100.00
2019-03-22T04:16:15.981Z,100.00
2019-03-22T04:18:48.534Z,100.00
2019-03-22T04:21:19.914Z,100.00
2019-03-22T04:23:50.456Z,100.00
2019-03-22T04:26:20.919Z,100.00
2019-03-22T04:29:06.070Z,100.00
2019-03-22T04:31:23.623Z,100.00
2019-03-22T04:33:54.297Z,100.00
2019-03-22T04:36:24.835Z,100.00
2019-03-22T04:38:55.460Z,100.00
2019-03-22T04:41:26.124Z,100.00
2019-03-22T04:43:56.687Z,100.00
2019-03-22T04:46:27.394Z,100.00
2019-03-22T04:48:58.126Z,100.00
2019-03-22T04:51:28.671Z,100.00
2019-03-22T04:53:59.571Z,100.00
2019-03-22T04:56:30.242Z,100.00
2019-03-22T04:59:00.929Z,99.95
2019-03-22T05:01:31.456Z,100.00
2019-03-22T05:04:02.068Z,99.97
2019-03-22T05:06:32.683Z,99.79
2019-03-22T05:09:04.026Z,99.45
2019-03-22T05:11:34.601Z,99.07
2019-03-22T05:14:05.320Z,98.94
2019-03-22T05:16:35.772Z,98.82
2019-03-22T05:19:06.468Z,99.09
2019-03-22T05:21:38.143Z,98.96
2019-03-22T05:24:08.765Z,98.80
2019-03-22T05:26:39.215Z,98.41
2019-03-22T05:29:09.711Z,98.57
2019-03-22T05:31:52.142Z,98.72
2019-03-22T05:34:22.841Z,98.65
2019-03-22T05:36:53.333Z,98.42
2019-03-22T05:39:23.801Z,98.04
2019-03-22T05:41:54.344Z,98.13
2019-03-22T05:44:24.962Z,98.41
2019-03-22T05:46:55.665Z,97.93
2019-03-22T05:49:26.226Z,98.30
2019-03-22T05:51:56.878Z,98.21
2019-03-22T05:54:27.436Z,98.28
2019-03-22T05:56:58.128Z,97.80
2019-03-22T05:59:28.877Z,97.92
2019-03-22T06:01:59.525Z,98.32
2019-03-22T06:04:30.243Z,98.45
2019-03-22T06:07:00.816Z,98.35
2019-03-22T06:09:31.312Z,98.25
2019-03-22T06:12:04.920Z,98.18
2019-03-22T06:14:35.621Z,97.93
2019-03-22T06:17:06.446Z,97.11
2019-03-22T06:19:37.441Z,96.86
2019-03-22T06:22:08.161Z,96.54
2019-03-22T06:24:38.652Z,96.09
2019-03-22T06:27:09.212Z,95.83
2019-03-22T06:29:40.830Z,95.21
2019-03-22T06:32:11.350Z,94.87
2019-03-22T06:34:41.981Z,94.84
2019-03-22T06:37:13.302Z,94.96
2019-03-22T06:39:43.995Z,94.46
2019-03-22T06:42:14.593Z,93.78
2019-03-22T06:44:45.148Z,93.53
2019-03-22T06:47:15.627Z,92.87
2019-03-22T06:49:46.120Z,92.35
2019-03-22T06:52:16.732Z,91.69
2019-03-22T06:54:47.229Z,91.75
2019-03-22T06:57:17.734Z,91.45
2019-03-22T06:59:48.284Z,91.47
2019-03-22T07:02:18.997Z,90.84
2019-03-22T07:04:49.543Z,91.19
2019-03-22T07:07:20.061Z,90.67
2019-03-22T07:09:50.622Z,90.24
2019-03-22T07:12:21.137Z,89.94
2019-03-22T07:14:51.687Z,90.08
2019-03-22T07:17:22.172Z,89.74
2019-03-22T07:19:52.732Z,90.25
2019-03-22T07:22:23.271Z,90.48
2019-03-22T07:24:53.843Z,90.55
2019-03-22T07:27:24.336Z,91.47
2019-03-22T07:29:55.078Z,90.71
2019-03-22T07:32:25.736Z,89.83
2019-03-22T07:34:57.352Z,89.46
2019-03-22T07:37:27.864Z,89.66
2019-03-22T07:39:58.471Z,88.93
2019-03-22T07:42:28.979Z,88.85
2019-03-22T07:44:59.614Z,88.90
2019-03-22T07:47:30.205Z,88.61
2019-03-22T07:50:00.764Z,88.11
2019-03-22T07:52:31.486Z,87.30
2019-03-22T07:55:02.162Z,86.43
2019-03-22T07:57:32.681Z,85.71
2019-03-22T08:00:04.977Z,85.19
2019-03-22T08:02:35.563Z,85.00
2019-03-22T08:05:06.605Z,84.31
2019-03-22T08:07:37.249Z,84.90
2019-03-22T08:10:08.673Z,83.93
2019-03-22T08:12:39.302Z,83.31
2019-03-22T08:15:10.035Z,82.72
2019-03-22T08:17:40.552Z,81.44
2019-03-22T08:20:11.301Z,79.86
2019-03-22T08:22:41.801Z,78.98
2019-03-22T08:25:13.377Z,77.92
2019-03-22T08:27:43.906Z,77.77
2019-03-22T08:30:14.494Z,78.39
2019-03-22T08:32:45.049Z,79.94
2019-03-22T08:35:15.646Z,79.87
2019-03-22T08:37:52.604Z,80.47
2019-03-22T08:40:18.449Z,81.42
2019-03-22T08:42:49.030Z,82.23
2019-03-22T08:45:19.892Z,81.10
2019-03-22T08:47:50.355Z,80.16
2019-03-22T08:50:21.146Z,81.42
2019-03-22T08:52:51.595Z,81.79
2019-03-22T08:55:22.255Z,82.47
2019-03-22T08:57:52.832Z,83.09
2019-03-22T09:00:23.351Z,84.03
2019-03-22T09:02:53.838Z,82.88
2019-03-22T09:05:24.462Z,83.38
2019-03-22T09:07:55.012Z,81.44
2019-03-22T09:10:25.776Z,81.30
2019-03-22T09:12:56.480Z,80.23
2019-03-22T09:15:26.953Z,78.45
2019-03-22T09:17:57.498Z,78.55
2019-03-22T09:20:28.109Z,79.48
2019-03-22T09:22:58.560Z,80.12
2019-03-22T09:25:29.176Z,80.50
2019-03-22T09:27:59.791Z,80.17
2019-03-22T09:30:30.813Z,79.35
2019-03-22T09:33:01.339Z,78.25
2019-03-22T09:35:31.949Z,77.43
2019-03-22T09:38:12.342Z,77.79
2019-03-22T09:40:34.930Z,77.73
2019-03-22T09:43:05.416Z,78.97
2019-03-22T09:45:35.997Z,80.27
2019-03-22T09:48:06.727Z,79.42
2019-03-22T09:50:37.297Z,79.70
2019-03-22T09:53:07.702Z,78.04
2019-03-22T09:55:38.892Z,76.88
2019-03-22T09:58:09.500Z,76.64
2019-03-22T10:00:40.072Z,76.66
2019-03-22T10:03:10.484Z,77.62
2019-03-22T10:05:41.117Z,78.71
2019-03-22T10:08:11.669Z,78.68
2019-03-22T10:10:42.339Z,78.75
2019-03-22T10:13:12.946Z,78.52
2019-03-22T10:15:43.577Z,79.63
2019-03-22T10:18:14.151Z,78.69
2019-03-22T10:20:44.836Z,78.25
2019-03-22T10:23:15.249Z,78.44
2019-03-22T10:25:45.890Z,77.46
2019-03-22T10:28:16.548Z,77.15
2019-03-22T10:30:47.156Z,75.79
2019-03-22T10:33:22.664Z,75.12
2019-03-22T10:35:50.253Z,76.06
2019-03-22T10:38:30.904Z,75.75
2019-03-22T10:40:53.069Z,74.30
2019-03-22T10:43:23.711Z,73.83
2019-03-22T10:45:54.355Z,72.96
2019-03-22T10:48:24.955Z,72.06
2019-03-22T10:50:55.695Z,71.63
2019-03-22T10:53:26.373Z,70.25
2019-03-22T10:55:57.358Z,69.74
2019-03-22T10:58:27.862Z,70.62
2019-03-22T11:00:59.326Z,70.47
2019-03-22T11:03:29.932Z,70.84
2019-03-22T11:06:00.481Z,71.04
2019-03-22T11:08:30.973Z,72.19
2019-03-22T11:11:01.552Z,73.50
2019-03-22T11:13:33.057Z,73.70
2019-03-22T11:16:03.562Z,71.65
2019-03-22T11:18:37.654Z,73.41
2019-03-22T11:21:06.716Z,71.84
2019-03-22T11:23:37.344Z,71.95
2019-03-22T11:26:07.903Z,71.73
2019-03-22T11:28:38.497Z,71.76
2019-03-22T11:31:09.056Z,72.34
2019-03-22T11:33:39.578Z,71.71
2019-03-22T11:36:10.311Z,70.99
2019-03-22T11:38:40.914Z,72.14
2019-03-22T11:41:11.473Z,72.65
2019-03-22T11:43:41.992Z,72.52
2019-03-22T11:46:12.622Z,72.74
2019-03-22T11:48:43.493Z,71.77
2019-03-22T11:51:14.063Z,72.68
2019-03-22T11:53:44.576Z,72.04
2019-03-22T11:56:15.135Z,71.83
2019-03-22T11:58:45.645Z,71.91
2019-03-22T12:01:21.307Z,71.69
2019-03-22T12:03:48.541Z,72.83
2019-03-22T12:06:19.189Z,72.30
2019-03-22T12:08:49.807Z,73.39
2019-03-22T12:11:21.338Z,74.40
2019-03-22T12:13:51.927Z,73.50
2019-03-22T12:16:24.257Z,73.48
2019-03-22T12:18:54.890Z,72.99
2019-03-22T12:21:25.425Z,72.39
2019-03-22T12:23:56.001Z,72.19
2019-03-22T12:26:27.992Z,73.98
2019-03-22T12:28:59.502Z,75.97
2019-03-22T12:31:31.055Z,75.48
2019-03-22T12:34:01.561Z,75.59
2019-03-22T12:36:32.058Z,74.79
2019-03-22T12:39:02.633Z,75.35
2019-03-22T12:41:33.338Z,75.53
2019-03-22T12:44:03.983Z,76.61
2019-03-22T12:46:35.573Z,76.46
2019-03-22T12:49:06.059Z,76.84
2019-03-22T12:51:36.549Z,76.40
2019-03-22T12:54:07.125Z,77.18
2019-03-22T12:56:37.753Z,76.31
2019-03-22T12:59:08.331Z,76.05
2019-03-22T13:01:38.851Z,76.00
2019-03-22T13:04:09.366Z,77.10
2019-03-22T13:06:39.981Z,77.93
2019-03-22T13:09:10.515Z,78.72
2019-03-22T13:11:41.167Z,79.42
2019-03-22T13:14:11.676Z,78.88
2019-03-22T13:16:42.286Z,79.13
2019-03-22T13:19:12.732Z,79.27
2019-03-22T13:21:43.460Z,79.11
2019-03-22T13:24:14.039Z,79.11
2019-03-22T13:26:44.596Z,79.85
2019-03-22T13:29:15.243Z,80.20
2019-03-22T13:31:45.735Z,79.38
2019-03-22T13:34:16.168Z,78.38
2019-03-22T13:36:46.803Z,78.83
2019-03-22T13:39:17.320Z,79.12
2019-03-22T13:41:47.831Z,78.46
2019-03-22T13:44:18.273Z,78.55
2019-03-22T13:46:49.987Z,79.41
2019-03-22T13:49:21.780Z,79.45
2019-03-22T13:51:52.413Z,78.76
2019-03-22T13:54:24.325Z,79.57
2019-03-22T13:56:54.933Z,78.86
2019-03-22T13:59:25.371Z,78.46
2019-03-22T14:01:56.096Z,80.40
2019-03-22T14:04:26.563Z,81.20
2019-03-22T14:06:57.035Z,81.03
2019-03-22T14:09:27.585Z,81.19
2019-03-22T14:12:00.245Z,80.72
2019-03-22T14:14:30.791Z,79.82
2019-03-22T14:17:01.343Z,80.31
2019-03-22T14:19:31.857Z,79.67
2019-03-22T14:22:02.396Z,79.24
2019-03-22T14:24:32.913Z,78.99
2019-03-22T14:27:03.397Z,78.79
2019-03-22T14:29:33.839Z,78.50
2019-03-22T14:32:04.411Z,78.35
2019-03-22T14:34:34.847Z,78.49
2019-03-22T14:37:05.399Z,78.55
2019-03-22T14:39:35.920Z,78.65
2019-03-22T14:42:06.398Z,78.49
2019-03-22T14:44:36.928Z,79.05
2019-03-22T14:47:07.426Z,79.40
2019-03-22T14:49:39.004Z,78.87
2019-03-22T14:52:09.482Z,79.38
2019-03-22T14:54:40.065Z,80.27
2019-03-22T14:57:11.526Z,80.40
2019-03-22T14:59:42.061Z,80.97
2019-03-22T15:02:12.661Z,81.14
2019-03-22T15:04:43.249Z,81.60
2019-03-22T15:07:19.488Z,82.63
2019-03-22T15:09:46.367Z,83.03
2019-03-22T15:12:17.656Z,83.25
2019-03-22T15:15:01.127Z,83.37
2019-03-22T15:17:35.740Z,84.41
2019-03-22T15:20:24.261Z,84.14
2019-03-22T15:23:08.387Z,84.52
2019-03-22T15:25:56.896Z,84.79
2019-03-22T15:28:34.598Z,85.37
2019-03-22T15:31:09.194Z,86.02
2019-03-22T15:36:37.212Z,85.87
2019-03-22T15:39:12.784Z,86.02
2019-03-22T15:41:43.437Z,85.81
2019-03-22T15:44:14.212Z,86.20
2019-03-22T15:46:44.811Z,85.77
2019-03-22T15:49:15.369Z,85.99
2019-03-22T15:51:46.174Z,86.08
2019-03-22T15:54:16.749Z,86.07
2019-03-22T15:56:47.251Z,86.37
2019-03-22T15:59:17.800Z,86.58
2019-03-22T16:01:48.244Z,87.05
2019-03-22T16:04:18.894Z,87.01
2019-03-22T16:06:49.414Z,87.07
2019-03-22T16:09:19.919Z,87.45
2019-03-22T16:11:50.415Z,87.41
2019-03-22T16:14:21.050Z,87.58
2019-03-22T16:16:51.568Z,87.96
2019-03-22T16:19:22.058Z,88.16
2019-03-22T16:21:52.578Z,88.23
2019-03-22T16:24:23.150Z,88.62
2019-03-22T16:26:53.733Z,88.70
2019-03-22T16:29:24.288Z,88.71
2019-03-22T16:31:54.817Z,88.83
2019-03-22T16:34:25.360Z,89.19
2019-03-22T16:36:55.802Z,89.14
2019-03-22T16:39:26.403Z,89.17
2019-03-22T16:41:57.687Z,89.32
2019-03-22T16:44:28.308Z,89.33
2019-03-22T16:46:58.735Z,89.43
2019-03-22T16:49:29.216Z,89.76
2019-03-22T16:51:59.670Z,90.14
2019-03-22T16:54:30.230Z,91.24
2019-03-22T16:57:01.054Z,90.48
2019-03-22T16:59:31.611Z,90.49
2019-03-22T17:02:02.153Z,91.23
2019-03-22T17:04:32.768Z,91.78
2019-03-22T17:07:03.312Z,92.79
2019-03-22T17:09:33.869Z,93.30
2019-03-22T17:12:04.378Z,93.76
2019-03-22T17:14:34.929Z,94.31
2019-03-22T17:17:06.461Z,95.71
2019-03-22T17:19:37.032Z,95.55
2019-03-22T17:22:07.682Z,95.75
2019-03-22T17:24:38.330Z,95.09
2019-03-22T17:27:09.373Z,96.58
2019-03-22T17:29:41.080Z,96.20
2019-03-22T17:32:11.550Z,97.55
2019-03-22T17:34:42.281Z,96.56
2019-03-22T17:37:12.719Z,96.17
2019-03-22T17:39:43.263Z,97.91
2019-03-22T17:42:13.774Z,97.96
2019-03-22T17:44:44.388Z,98.63
2019-03-22T17:47:14.813Z,97.93
2019-03-22T17:49:48.538Z,97.21
2019-03-22T17:52:18.048Z,98.88
2019-03-22T17:54:48.642Z,98.87
2019-03-22T17:57:19.195Z,100.00
2019-03-22T17:59:50.709Z,100.00
2019-03-22T18:02:21.271Z,100.00
2019-03-22T18:04:51.877Z,100.00
2019-03-22T18:07:22.475Z,100.00
2019-03-22T18:09:53.742Z,99.77
2019-03-22T18:12:24.357Z,99.81
2019-03-22T18:14:54.982Z,100.00
2019-03-22T18:17:25.453Z,100.00
2019-03-22T18:19:56.109Z,99.79
2019-03-22T18:22:26.703Z,99.76
2019-03-22T18:24:58.355Z,98.95
2019-03-22T18:27:28.878Z,99.04
2019-03-22T18:30:01.040Z,97.77
2019-03-22T18:32:31.628Z,97.69
2019-03-22T18:35:03.342Z,97.40
2019-03-22T18:37:33.934Z,97.50
2019-03-22T18:40:06.340Z,97.64
2019-03-22T18:42:36.795Z,97.33
2019-03-22T18:45:11.946Z,97.26
2019-03-22T18:47:43.549Z,97.23
2019-03-22T18:50:14.888Z,96.70
2019-03-22T18:52:45.430Z,96.82
2019-03-22T18:55:15.903Z,97.15
2019-03-22T18:57:47.499Z,96.83
2019-03-22T19:00:18.641Z,96.66
2019-03-22T19:02:49.175Z,96.78
2019-03-22T19:05:19.654Z,96.57
2019-03-22T19:07:50.260Z,97.38
2019-03-22T19:10:20.983Z,97.27
2019-03-22T19:12:51.507Z,97.59
2019-03-22T19:15:22.004Z,97.62
2019-03-22T19:17:52.587Z,97.89
2019-03-22T19:20:23.092Z,97.70
2019-03-22T19:22:53.636Z,97.95
2019-03-22T19:25:24.344Z,97.92
2019-03-22T19:27:54.863Z,97.84
2019-03-22T19:30:25.419Z,98.28
2019-03-22T19:32:55.923Z,97.67
2019-03-22T19:35:26.976Z,98.25
2019-03-22T19:37:57.589Z,97.72
2019-03-22T19:40:28.101Z,98.20
2019-03-22T19:42:58.567Z,97.91
2019-03-22T19:45:29.210Z,98.51
2019-03-22T19:47:59.749Z,98.28
2019-03-22T19:50:30.425Z,97.99
2019-03-22T19:53:00.960Z,98.11
2019-03-22T19:55:31.474Z,97.75
2019-03-22T19:58:02.041Z,97.91
2019-03-22T20:00:32.639Z,98.50
2019-03-22T20:03:03.182Z,98.33
2019-03-22T20:05:35.451Z,99.38
2019-03-22T20:08:05.905Z,99.86
2019-03-22T20:10:36.465Z,99.88
2019-03-22T20:13:06.910Z,99.80
2019-03-22T20:15:37.415Z,100.00
2019-03-22T20:18:07.949Z,99.74
2019-03-22T20:20:38.571Z,99.70
2019-03-22T20:23:09.037Z,99.83
2019-03-22T20:25:39.755Z,99.90
2019-03-22T20:28:10.440Z,99.22
2019-03-22T20:30:41.037Z,99.09
2019-03-22T20:33:11.581Z,98.83
2019-03-22T20:35:42.132Z,98.23
2019-03-22T20:38:12.652Z,97.90
2019-03-22T20:40:43.140Z,96.94
2019-03-22T20:43:13.657Z,96.70
2019-03-22T20:45:44.128Z,96.32
2019-03-22T20:48:15.654Z,96.20
2019-03-22T20:50:46.211Z,96.14
2019-03-22T20:53:16.738Z,95.82
2019-03-22T20:55:47.353Z,95.91
2019-03-22T20:58:18.022Z,95.89
2019-03-22T21:00:48.575Z,95.60
2019-03-22T21:03:19.247Z,95.16
2019-03-22T21:05:49.805Z,95.28
2019-03-22T21:08:20.333Z,94.91
2019-03-22T21:10:50.877Z,94.28
2019-03-22T21:13:21.478Z,94.71
2019-03-22T21:15:52.031Z,94.24
2019-03-22T21:18:22.565Z,93.95
2019-03-22T21:20:53.055Z,93.66
2019-03-22T21:23:23.686Z,93.32
2019-03-22T21:25:54.326Z,93.41
2019-03-22T21:28:24.871Z,93.18
2019-03-22T21:30:55.598Z,92.67
2019-03-22T21:33:26.023Z,92.35
2019-03-22T21:35:56.644Z,91.98
2019-03-22T21:38:28.322Z,92.52
2019-03-22T21:40:58.818Z,92.30
2019-03-22T21:43:29.355Z,92.44
2019-03-22T21:45:59.837Z,92.33
2019-03-22T21:48:30.412Z,92.36
2019-03-22T21:51:02.055Z,92.18
2019-03-22T21:53:32.575Z,91.84
2019-03-22T21:56:03.059Z,92.05
2019-03-22T21:58:33.595Z,92.50
2019-03-22T22:01:16.180Z,91.84
2019-03-22T22:03:46.626Z,91.91
2019-03-22T22:06:17.121Z,92.16
2019-03-22T22:08:50.206Z,91.98
2019-03-22T22:11:37.452Z,91.75
2019-03-22T22:14:07.895Z,91.75
2019-03-22T22:16:38.382Z,91.32
2019-03-22T22:19:09.012Z,91.20
2019-03-22T22:21:39.550Z,91.13
2019-03-22T22:24:10.065Z,91.15
2019-03-22T22:26:40.549Z,91.24
2019-03-22T22:29:11.119Z,91.00
2019-03-22T22:31:41.645Z,91.27
2019-03-22T22:34:12.115Z,90.84
2019-03-22T22:36:42.633Z,90.79
2019-03-22T22:39:17.825Z,90.93
2019-03-22T22:41:48.364Z,91.08
2019-03-22T22:44:18.826Z,91.26
2019-03-22T22:46:49.368Z,92.17
2019-03-22T22:49:19.816Z,93.06
2019-03-22T22:51:50.292Z,94.04
2019-03-22T22:54:20.810Z,95.20
2019-03-22T22:56:52.351Z,96.10
2019-03-22T22:59:22.881Z,96.91
2019-03-22T23:01:53.369Z,97.91
2019-03-22T23:04:23.889Z,98.29
2019-03-22T23:06:54.360Z,98.50
2019-03-22T23:09:24.825Z,99.07
2019-03-22T23:11:55.369Z,99.51
2019-03-22T23:14:27.420Z,100.00
2019-03-22T23:16:57.901Z,100.00
2019-03-22T23:19:28.436Z,100.00
2019-03-22T23:21:58.917Z,100.00
2019-03-22T23:24:29.426Z,100.00
2019-03-22T23:27:00.172Z,100.00
2019-03-22T23:29:30.970Z,100.00
2019-03-22T23:32:01.509Z,100.00
2019-03-22T23:34:32.099Z,100.00
2019-03-22T23:37:02.673Z,100.00
2019-03-22T23:39:33.231Z,100.00
2019-03-22T23:42:03.783Z,100.00
2019-03-22T23:44:34.350Z,100.00
2019-03-22T23:47:04.907Z,100.00
2019-03-22T23:49:35.359Z,100.00
2019-03-22T23:52:05.839Z,100.00
2019-03-22T23:54:36.378Z,100.00
2019-03-22T23:57:06.929Z,100.00
2019-03-22T23:59:37.520Z,100.00
